»·PEaware :: AAL115 KSEA-KGEG

AAL115 :: KSEA-KGEG

FLIGHT INFORMATION

Flight Status: Arrived
Operator:
American Airlines
More flights by this operator :: More flights under this callsign
Pilot: Sergei F. (8485)
Aircraft: BOEING 737-300
(B733)
More flights by this aircraft type
Origin: KSEA Seattle-Tacoma Intl
United States
Destination: KGEG Spokane Intl
United States
More flights between these airports :: More routes between these airports
Route: +ZADON ZELAK ZIRAN ZOOMR ZOOMR1
File this flight plan on PilotEdge
Remarks:
Altitude:
(Current/Filed)
24,000ft
Speed:
(Current/Filed)
300kts
Departed: 16-Dec-17 07:48 PM
Arrived: 16-Dec-17 08:46 PM
Distance/Time
Traveled:
194nm/0:58
Distance/Time
To Go:
Arrived

Flight Plot

Page will automatically refresh every two minutes.


Map Options




Map Legend


Flown Route
Filed Route
Departure Airport
Arrival Airport
Navaid (VOR, NDB)
Fix

Horizontal Profiles

Position Reports

Time Latitude Longitude Heading Altitude Ground
Speed
16-Dec-17 19:18 47.438491 -122.298357 91 369ft 0kts
16-Dec-17 19:19 47.438491 -122.298357 91 369ft 0kts
16-Dec-17 19:20 47.438491 -122.298357 91 369ft 0kts
16-Dec-17 19:21 47.438491 -122.298357 91 369ft 0kts
16-Dec-17 19:22 47.438491 -122.298357 91 369ft 0kts
16-Dec-17 19:23 47.438491 -122.298357 91 369ft 0kts
16-Dec-17 19:24 47.438491 -122.298357 91 369ft 0kts
16-Dec-17 19:25 47.438491 -122.298357 91 369ft 0kts
16-Dec-17 19:26 47.438491 -122.298357 91 369ft 0kts
16-Dec-17 19:27 47.438491 -122.298357 91 369ft 0kts
16-Dec-17 19:28 47.438491 -122.298357 91 369ft 0kts
16-Dec-17 19:29 47.438491 -122.298357 91 369ft 0kts
16-Dec-17 19:30 47.438491 -122.298357 91 369ft 0kts
16-Dec-17 19:31 47.438491 -122.298357 91 369ft 0kts
16-Dec-17 19:32 47.438491 -122.298357 91 369ft 0kts
16-Dec-17 19:33 47.438497 -122.298794 91 370ft 0kts
16-Dec-17 19:34 47.438508 -122.299552 91 371ft 0kts
16-Dec-17 19:35 47.438508 -122.299687 194 371ft 0kts
16-Dec-17 19:36 47.438508 -122.299687 194 371ft 0kts
16-Dec-17 19:37 47.438508 -122.299687 194 371ft 0kts
16-Dec-17 19:38 47.438508 -122.299687 194 371ft 0kts
16-Dec-17 19:39 47.438499 -122.299690 194 371ft 0kts
16-Dec-17 19:40 47.437526 -122.300962 256 368ft 8kts
16-Dec-17 19:41 47.437257 -122.304455 271 364ft 3kts
16-Dec-17 19:42 47.437273 -122.305403 271 364ft 0kts
16-Dec-17 19:43 47.437273 -122.305403 271 364ft 0kts
16-Dec-17 19:44 47.437463 -122.306306 326 364ft 7kts
16-Dec-17 19:45 47.439761 -122.306368 1 374ft 9kts
16-Dec-17 19:46 47.443155 -122.306336 0 384ft 14kts
16-Dec-17 19:47 47.447291 -122.306289 1 397ft 15kts
16-Dec-17 19:48 47.451236 -122.306249 0 415ft 12kts
16-Dec-17 19:49 47.455026 -122.306209 0 432ft 13kts
16-Dec-17 19:50 47.458832 -122.306170 0 440ft 11kts
16-Dec-17 19:51 47.462082 -122.306140 1 430ft 12kts
16-Dec-17 19:52 47.463530 -122.306219 334 418ft 0kts
16-Dec-17 19:53 47.463071 -122.307745 181 411ft 4kts
16-Dec-17 19:54 47.449932 -122.307889 179 477ft 149kts
16-Dec-17 19:55 47.403745 -122.304983 175 3201ft 171kts
16-Dec-17 19:56 47.381233 -122.260569 53 5700ft 200kts
16-Dec-17 19:57 47.407202 -122.188265 60 8635ft 220kts
16-Dec-17 19:58 47.439388 -122.095634 58 10459ft 296kts
16-Dec-17 19:59 47.479246 -121.980562 57 13339ft 331kts
16-Dec-17 20:00 47.521696 -121.857604 56 16739ft 345kts
16-Dec-17 20:01 47.561920 -121.725753 76 19705ft 376kts
16-Dec-17 20:02 47.560192 -121.565725 83 22304ft 399kts
16-Dec-17 20:03 47.557761 -121.398492 82 24694ft 415kts
16-Dec-17 20:04 47.555147 -121.229909 83 25321ft 398kts
16-Dec-17 20:05 47.552549 -121.068033 83 25263ft 391kts
16-Dec-17 20:06 47.549726 -120.907890 83 25262ft 387kts
16-Dec-17 20:07 47.546709 -120.749123 83 25269ft 388kts
16-Dec-17 20:08 47.543458 -120.590289 83 25283ft 387kts
16-Dec-17 20:09 47.539978 -120.430927 83 25303ft 386kts
16-Dec-17 20:10 47.532199 -120.267953 88 25286ft 407kts
16-Dec-17 20:11 47.524486 -120.101082 88 25293ft 408kts
16-Dec-17 20:12 47.516604 -119.934078 88 25295ft 407kts
16-Dec-17 20:13 47.508469 -119.766612 88 25309ft 408kts
16-Dec-17 20:14 47.500127 -119.599890 88 25311ft 408kts
16-Dec-17 20:15 47.491543 -119.433218 88 25312ft 408kts
16-Dec-17 20:16 47.482727 -119.266739 89 24573ft 409kts
16-Dec-17 20:17 47.473736 -119.101667 90 22104ft 400kts
16-Dec-17 20:18 47.464729 -118.940446 90 19626ft 391kts
16-Dec-17 20:19 47.455757 -118.784089 90 17416ft 368kts
16-Dec-17 20:20 47.447181 -118.637594 90 15521ft 350kts
16-Dec-17 20:21 47.438805 -118.497620 91 13629ft 336kts
16-Dec-17 20:22 47.430616 -118.363587 91 11811ft 318kts
16-Dec-17 20:23 47.438791 -118.246497 70 10214ft 280kts
16-Dec-17 20:24 47.460538 -118.140603 70 8681ft 262kts
16-Dec-17 20:25 47.488459 -118.045707 54 7280ft 248kts
16-Dec-17 20:26 47.528022 -117.965038 54 5884ft 240kts
16-Dec-17 20:27 47.566689 -117.888601 54 4984ft 213kts
16-Dec-17 20:28 47.602545 -117.818293 54 4991ft 212kts
16-Dec-17 20:29 47.637868 -117.749012 54 4992ft 212kts
16-Dec-17 20:30 47.673286 -117.679526 53 4992ft 212kts
16-Dec-17 20:31 47.708870 -117.609835 53 4979ft 220kts
16-Dec-17 20:32 47.745015 -117.538847 53 5041ft 204kts
16-Dec-17 20:33 47.777349 -117.475693 53 5022ft 192kts
16-Dec-17 20:34 47.792557 -117.405411 133 4807ft 195kts
16-Dec-17 20:35 47.749963 -117.380523 194 4008ft 173kts
16-Dec-17 20:36 47.708474 -117.400856 219 4026ft 159kts
16-Dec-17 20:37 47.678961 -117.445890 226 3749ft 146kts
16-Dec-17 20:38 47.652294 -117.486505 223 2961ft 140kts
16-Dec-17 20:39 47.625165 -117.527716 223 3160ft 121kts
16-Dec-17 20:40 47.597703 -117.570709 224 4646ft 170kts
16-Dec-17 20:41 47.576525 -117.630854 308 5974ft 186kts
16-Dec-17 20:42 47.622667 -117.630332 29 5994ft 174kts
16-Dec-17 20:43 47.658134 -117.583507 43 5994ft 171kts
16-Dec-17 20:44 47.692541 -117.535692 43 5511ft 171kts
16-Dec-17 20:45 47.726671 -117.488154 43 4975ft 169kts
16-Dec-17 20:46 47.759970 -117.439061 73 4687ft 172kts
16-Dec-17 20:47 47.729707 -117.401007 158 4029ft 155kts
16-Dec-17 20:48 47.692283 -117.426275 222 4045ft 147kts
16-Dec-17 20:49 47.664882 -117.467496 225 3305ft 136kts
16-Dec-17 20:50 47.639129 -117.506472 224 2594ft 127kts
16-Dec-17 20:51 47.619846 -117.535387 224 2364ft 52kts
16-Dec-17 20:52 47.618727 -117.541019 25 2369ft 11kts
16-Dec-17 20:53 47.621644 -117.536977 3 2363ft 9kts
16-Dec-17 20:54 47.623546 -117.535477 46 2360ft 7kts
16-Dec-17 20:55 47.624384 -117.535588 321 2361ft 0kts
16-Dec-17 20:56 47.624384 -117.535588 321 2361ft 0kts

Navigation Log

Ident Type
1. KSEA Airport
2. ZADON Fix
3. ZELAK Fix
4. ZIRAN Fix
5. ZOOMR Fix
6. GANGS Fix
7. KNOCK Fix
8. KGEG Airport